Akhmed Mahmudov — 9HZS8 — position and weather

sailwx.info

Track history (hours):
 
Tides and Currents Weather Stations Pressure Air Temp Water Temp Dewpoint Dewpoint Depression Visibility Wind Speed Wind Dir Waves Ship Positions

Akhmed Mahmudov

Last reported at 2018-May-23 00:30 UTC. Time now 2018-May-25 03:30 UTC.
Position N 32°30' E 033°35'.

Length 121 m; draft 3.6 m.

Type: Ship. MMSI: 256652000.

Date/timePositionNaut miles runAvg speedWind from/ knotsBaromVisibWave heightAir tempDewpointWater temp
2018-May-23 00:30N 32°30' E 033°35'7 8.1
2018-May-22 23:38N 32°24' E 033°39'6 7.7
2018-May-22 22:51N 32°19' E 033°43'3 8.1
2018-May-22 22:30N 32°17' E 033°45'4 7.9
2018-May-22 22:00N 32°13' E 033°47'50 1.6
2018-May-21 15:28N 31°50' E 034°39'0 0.0
2018-May-21 14:40N 31°50' E 034°39'0 0.0
2018-May-21 14:28N 31°50' E 034°39'0 0.0
2018-May-21 13:58N 31°50' E 034°39'0 0.0
2018-May-21 13:28N 31°50' E 034°39'0 0.0
2018-May-21 12:58N 31°50' E 034°39'0 0.0
2018-May-21 12:16N 31°50' E 034°39'0 0.0
2018-May-21 09:28N 31°50' E 034°39'0 0.0
2018-May-21 08:55N 31°50' E 034°39'0 0.0
2018-May-21 08:22N 31°50' E 034°39'0 0.0
2018-May-21 07:52N 31°50' E 034°39'0 0.0
2018-May-19 21:58N 31°50' E 034°39'0 0.0
2018-May-19 20:34N 31°50' E 034°39'0 0.0
2018-May-19 20:28N 31°50' E 034°39'0 0.0
2018-May-19 16:58N 31°50' E 034°39'0 0.0
2018-May-19 16:22N 31°50' E 034°39'0 0.0
2018-May-19 15:52N 31°50' E 034°39'2 0.0
2018-May-17 17:56N 31°51' E 034°38'2 4.8
2018-May-17 17:26N 31°50' E 034°36'1 2.8
2018-May-17 16:58N 31°48' E 034°36'0 0.0
2018-May-17 16:22N 31°48' E 034°36'0 0.0
2018-May-17 15:58N 31°48' E 034°36'0 0.0
2018-May-17 15:25N 31°48' E 034°36'0 0.0
2018-May-17 14:58N 31°48' E 034°36'0 0.0
2018-May-17 13:58N 31°48' E 034°36'0 0.0
2018-May-17 13:28N 31°48' E 034°36'0 0.0
2018-May-17 12:58N 31°48' E 034°36'0 0.0
2018-May-17 12:28N 31°48' E 034°36'0 0.0
2018-May-17 11:58N 31°48' E 034°36'0 0.0
2018-May-17 11:28N 31°48' E 034°36'0 0.0
2018-May-16 11:52N 31°48' E 034°36'  
Track history (hours):
 
Tides and Currents Weather Stations Pressure Air Temp Water Temp Dewpoint Dewpoint Depression Visibility Wind Speed Wind Dir Waves Ship Positions

Akhmed Mahmudov

Last reported at 2018-May-23 00:30 UTC. Time now 2018-May-25 03:30 UTC.
Position N 32°30' E 033°35'.

Length 121 m; draft 3.6 m.

Type: Ship. MMSI: 256652000.

Date/timePositionNaut miles runAvg speedWind from/ knotsBaromVisibWave heightAir tempDewpointWater temp
2018-May-23 00:30N 32°30' E 033°35'7 8.1
2018-May-22 23:38N 32°24' E 033°39'6 7.7
2018-May-22 22:51N 32°19' E 033°43'3 8.1
2018-May-22 22:30N 32°17' E 033°45'4 7.9
2018-May-22 22:00N 32°13' E 033°47'50 1.6
2018-May-21 15:28N 31°50' E 034°39'0 0.0
2018-May-21 14:40N 31°50' E 034°39'0 0.0
2018-May-21 14:28N 31°50' E 034°39'0 0.0
2018-May-21 13:58N 31°50' E 034°39'0 0.0
2018-May-21 13:28N 31°50' E 034°39'0 0.0
2018-May-21 12:58N 31°50' E 034°39'0 0.0
2018-May-21 12:16N 31°50' E 034°39'0 0.0
2018-May-21 09:28N 31°50' E 034°39'0 0.0
2018-May-21 08:55N 31°50' E 034°39'0 0.0
2018-May-21 08:22N 31°50' E 034°39'0 0.0
2018-May-21 07:52N 31°50' E 034°39'0 0.0
2018-May-19 21:58N 31°50' E 034°39'0 0.0
2018-May-19 20:34N 31°50' E 034°39'0 0.0
2018-May-19 20:28N 31°50' E 034°39'0 0.0
2018-May-19 16:58N 31°50' E 034°39'0 0.0
2018-May-19 16:22N 31°50' E 034°39'0 0.0
2018-May-19 15:52N 31°50' E 034°39'2 0.0
2018-May-17 17:56N 31°51' E 034°38'2 4.8
2018-May-17 17:26N 31°50' E 034°36'1 2.8
2018-May-17 16:58N 31°48' E 034°36'0 0.0
2018-May-17 16:22N 31°48' E 034°36'0 0.0
2018-May-17 15:58N 31°48' E 034°36'0 0.0
2018-May-17 15:25N 31°48' E 034°36'0 0.0
2018-May-17 14:58N 31°48' E 034°36'0 0.0
2018-May-17 13:58N 31°48' E 034°36'0 0.0
2018-May-17 13:28N 31°48' E 034°36'0 0.0
2018-May-17 12:58N 31°48' E 034°36'0 0.0
2018-May-17 12:28N 31°48' E 034°36'0 0.0
2018-May-17 11:58N 31°48' E 034°36'0 0.0
2018-May-17 11:28N 31°48' E 034°36'0 0.0
2018-May-16 11:52N 31°48' E 034°36'  

Dump ship's entire track history